sensor_id;sensor_type;location;lat;lon;timestamp;temperature;humidity
7694;DHT22;3889;48.162;11.510;2023-05-07T00:00:46;12.30;99.90
7694;DHT22;3889;48.162;11.510;2023-05-07T00:03:14;12.20;99.90
7694;DHT22;3889;48.162;11.510;2023-05-07T00:05:42;12.20;99.90
7694;DHT22;3889;48.162;11.510;2023-05-07T00:08:11;12.10;99.90
7694;DHT22;3889;48.162;11.510;2023-05-07T00:10:38;12.10;99.90
7694;DHT22;3889;48.162;11.510;2023-05-07T00:13:08;12.00;99.90
7694;DHT22;3889;48.162;11.510;2023-05-07T00:15:36;12.10;99.90
7694;DHT22;3889;48.162;11.510;2023-05-07T00:18:04;12.10;99.90
7694;DHT22;3889;48.162;11.510;2023-05-07T00:20:32;12.10;99.90
7694;DHT22;3889;48.162;11.510;2023-05-07T00:23:01;12.10;99.90
7694;DHT22;3889;48.162;11.510;2023-05-07T00:25:29;12.10;99.90
7694;DHT22;3889;48.162;11.510;2023-05-07T00:27:57;12.10;99.90
7694;DHT22;3889;48.162;11.510;2023-05-07T00:30:31;12.10;99.90
7694;DHT22;3889;48.162;11.510;2023-05-07T00:32:59;12.00;99.90
7694;DHT22;3889;48.162;11.510;2023-05-07T00:35:28;11.90;99.90
7694;DHT22;3889;48.162;11.510;2023-05-07T00:37:56;12.00;99.90
7694;DHT22;3889;48.162;11.510;2023-05-07T00:40:24;12.00;99.90
7694;DHT22;3889;48.162;11.510;2023-05-07T00:42:52;12.00;99.90
7694;DHT22;3889;48.162;11.510;2023-05-07T00:45:24;12.10;99.90
7694;DHT22;3889;48.162;11.510;2023-05-07T00:47:55;12.10;99.90
7694;DHT22;3889;48.162;11.510;2023-05-07T00:50:25;12.10;99.90
7694;DHT22;3889;48.162;11.510;2023-05-07T00:52:53;12.00;99.90
7694;DHT22;3889;48.162;11.510;2023-05-07T00:55:21;12.00;99.90
7694;DHT22;3889;48.162;11.510;2023-05-07T00:57:50;12.00;99.90
7694;DHT22;3889;48.162;11.510;2023-05-07T01:00:18;11.90;99.90
7694;DHT22;3889;48.162;11.510;2023-05-07T01:02:46;11.90;99.90
7694;DHT22;3889;48.162;11.510;2023-05-07T01:05:17;12.00;99.90
7694;DHT22;3889;48.162;11.510;2023-05-07T01:07:47;11.90;99.90
7694;DHT22;3889;48.162;11.510;2023-05-07T01:10:16;11.90;99.90
7694;DHT22;3889;48.162;11.510;2023-05-07T01:12:45;12.00;99.90
7694;DHT22;3889;48.162;11.510;2023-05-07T01:15:14;12.10;99.90
7694;DHT22;3889;48.162;11.510;2023-05-07T01:17:42;12.10;99.90
7694;DHT22;3889;48.162;11.510;2023-05-07T01:20:11;12.10;99.90
7694;DHT22;3889;48.162;11.510;2023-05-07T01:22:41;12.10;99.90
7694;DHT22;3889;48.162;11.510;2023-05-07T01:25:10;12.10;99.90
7694;DHT22;3889;48.162;11.510;2023-05-07T01:27:38;12.10;99.90
7694;DHT22;3889;48.162;11.510;2023-05-07T01:30:07;12.20;99.90
7694;DHT22;3889;48.162;11.510;2023-05-07T01:32:40;12.10;99.90
7694;DHT22;3889;48.162;11.510;2023-05-07T01:35:11;12.20;99.90
7694;DHT22;3889;48.162;11.510;2023-05-07T01:37:41;12.10;99.90
7694;DHT22;3889;48.162;11.510;2023-05-07T01:40:09;12.10;99.90
7694;DHT22;3889;48.162;11.510;2023-05-07T01:42:38;12.10;99.90
7694;DHT22;3889;48.162;11.510;2023-05-07T01:45:07;12.00;99.90
7694;DHT22;3889;48.162;11.510;2023-05-07T01:47:36;12.00;99.90
7694;DHT22;3889;48.162;11.510;2023-05-07T01:50:06;12.00;99.90
7694;DHT22;3889;48.162;11.510;2023-05-07T01:52:35;11.90;99.90
7694;DHT22;3889;48.162;11.510;2023-05-07T01:55:06;12.10;99.90
7694;DHT22;3889;48.162;11.510;2023-05-07T01:57:34;12.10;99.90
7694;DHT22;3889;48.162;11.510;2023-05-07T02:00:03;12.00;99.90
7694;DHT22;3889;48.162;11.510;2023-05-07T02:02:32;12.00;99.90
7694;DHT22;3889;48.162;11.510;2023-05-07T02:05:01;11.90;99.90
7694;DHT22;3889;48.162;11.510;2023-05-07T02:07:28;12.00;99.90
7694;DHT22;3889;48.162;11.510;2023-05-07T02:09:56;12.00;99.90
7694;DHT22;3889;48.162;11.510;2023-05-07T02:12:25;12.00;99.90
7694;DHT22;3889;48.162;11.510;2023-05-07T02:14:53;12.10;99.90
7694;DHT22;3889;48.162;11.510;2023-05-07T02:17:21;12.00;99.90
7694;DHT22;3889;48.162;11.510;2023-05-07T02:19:49;12.00;99.90
7694;DHT22;3889;48.162;11.510;2023-05-07T02:22:17;11.90;99.90
7694;DHT22;3889;48.162;11.510;2023-05-07T02:24:45;11.90;99.90
7694;DHT22;3889;48.162;11.510;2023-05-07T02:27:13;11.90;99.90
7694;DHT22;3889;48.162;11.510;2023-05-07T02:29:42;11.80;99.90
7694;DHT22;3889;48.162;11.510;2023-05-07T02:32:10;11.80;99.90
7694;DHT22;3889;48.162;11.510;2023-05-07T02:34:38;11.90;99.90
7694;DHT22;3889;48.162;11.510;2023-05-07T02:37:06;11.90;99.90
7694;DHT22;3889;48.162;11.510;2023-05-07T02:39:34;11.90;99.90
7694;DHT22;3889;48.162;11.510;2023-05-07T02:42:01;11.90;99.90
7694;DHT22;3889;48.162;11.510;2023-05-07T02:44:29;11.90;99.90
7694;DHT22;3889;48.162;11.510;2023-05-07T02:46:59;11.80;99.90
7694;DHT22;3889;48.162;11.510;2023-05-07T02:49:27;11.80;99.90
7694;DHT22;3889;48.162;11.510;2023-05-07T02:51:55;11.80;99.90
7694;DHT22;3889;48.162;11.510;2023-05-07T02:54:22;11.70;99.90
7694;DHT22;3889;48.162;11.510;2023-05-07T02:56:51;11.70;99.90
7694;DHT22;3889;48.162;11.510;2023-05-07T02:59:18;11.70;99.90
7694;DHT22;3889;48.162;11.510;2023-05-07T03:01:46;11.60;99.90
7694;DHT22;3889;48.162;11.510;2023-05-07T03:04:16;11.80;99.90
7694;DHT22;3889;48.162;11.510;2023-05-07T03:06:44;11.70;99.90
7694;DHT22;3889;48.162;11.510;2023-05-07T03:09:12;11.60;99.90
7694;DHT22;3889;48.162;11.510;2023-05-07T03:11:39;11.60;99.90
7694;DHT22;3889;48.162;11.510;2023-05-07T03:14:07;11.70;99.90
7694;DHT22;3889;48.162;11.510;2023-05-07T03:16:35;11.60;99.90
7694;DHT22;3889;48.162;11.510;2023-05-07T03:19:03;11.60;99.90
7694;DHT22;3889;48.162;11.510;2023-05-07T03:21:33;11.60;99.90
7694;DHT22;3889;48.162;11.510;2023-05-07T03:24:01;11.70;99.90
7694;DHT22;3889;48.162;11.510;2023-05-07T03:26:29;11.70;99.90
7694;DHT22;3889;48.162;11.510;2023-05-07T03:28:57;11.70;99.90
7694;DHT22;3889;48.162;11.510;2023-05-07T03:31:24;11.60;99.90
7694;DHT22;3889;48.162;11.510;2023-05-07T03:33:53;11.50;99.90
7694;DHT22;3889;48.162;11.510;2023-05-07T03:36:22;11.50;99.90
7694;DHT22;3889;48.162;11.510;2023-05-07T03:38:51;11.50;99.90
7694;DHT22;3889;48.162;11.510;2023-05-07T03:41:19;11.50;99.90
7694;DHT22;3889;48.162;11.510;2023-05-07T03:43:46;11.60;99.90
7694;DHT22;3889;48.162;11.510;2023-05-07T03:46:14;11.60;99.90
7694;DHT22;3889;48.162;11.510;2023-05-07T03:48:42;11.60;99.90
7694;DHT22;3889;48.162;11.510;2023-05-07T03:51:10;11.60;99.90
7694;DHT22;3889;48.162;11.510;2023-05-07T03:53:38;11.60;99.90
7694;DHT22;3889;48.162;11.510;2023-05-07T03:56:07;11.70;99.90
7694;DHT22;3889;48.162;11.510;2023-05-07T03:58:35;11.60;99.90
7694;DHT22;3889;48.162;11.510;2023-05-07T04:01:03;11.50;99.90
7694;DHT22;3889;48.162;11.510;2023-05-07T04:03:31;11.40;99.90
7694;DHT22;3889;48.162;11.510;2023-05-07T04:05:59;11.30;99.90
7694;DHT22;3889;48.162;11.510;2023-05-07T04:08:27;11.30;99.90
7694;DHT22;3889;48.162;11.510;2023-05-07T04:10:55;11.40;99.90
7694;DHT22;3889;48.162;11.510;2023-05-07T04:13:24;11.50;99.90
7694;DHT22;3889;48.162;11.510;2023-05-07T04:15:52;11.50;99.90
7694;DHT22;3889;48.162;11.510;2023-05-07T04:18:20;11.40;99.90
7694;DHT22;3889;48.162;11.510;2023-05-07T04:20:48;11.40;99.90
7694;DHT22;3889;48.162;11.510;2023-05-07T04:23:16;11.40;99.90
7694;DHT22;3889;48.162;11.510;2023-05-07T04:25:44;11.50;99.90
7694;DHT22;3889;48.162;11.510;2023-05-07T04:28:12;11.50;99.90
7694;DHT22;3889;48.162;11.510;2023-05-07T04:30:42;11.60;99.90
7694;DHT22;3889;48.162;11.510;2023-05-07T04:33:10;11.70;99.90
7694;DHT22;3889;48.162;11.510;2023-05-07T04:35:38;11.70;99.90
7694;DHT22;3889;48.162;11.510;2023-05-07T04:38:06;11.70;99.90
7694;DHT22;3889;48.162;11.510;2023-05-07T04:40:35;11.80;99.90
7694;DHT22;3889;48.162;11.510;2023-05-07T04:43:03;11.70;99.90
7694;DHT22;3889;48.162;11.510;2023-05-07T04:45:31;11.80;99.90
7694;DHT22;3889;48.162;11.510;2023-05-07T04:48:01;11.90;99.90
7694;DHT22;3889;48.162;11.510;2023-05-07T04:50:29;12.00;99.90
7694;DHT22;3889;48.162;11.510;2023-05-07T04:52:57;12.00;99.90
7694;DHT22;3889;48.162;11.510;2023-05-07T04:55:24;12.00;99.90
7694;DHT22;3889;48.162;11.510;2023-05-07T04:57:53;12.00;99.90
7694;DHT22;3889;48.162;11.510;2023-05-07T05:00:21;12.10;99.90
7694;DHT22;3889;48.162;11.510;2023-05-07T05:02:49;12.20;99.90
7694;DHT22;3889;48.162;11.510;2023-05-07T05:05:19;12.20;99.90
7694;DHT22;3889;48.162;11.510;2023-05-07T05:07:47;12.20;99.90
7694;DHT22;3889;48.162;11.510;2023-05-07T05:10:14;12.40;99.90
7694;DHT22;3889;48.162;11.510;2023-05-07T05:12:42;12.50;99.90
7694;DHT22;3889;48.162;11.510;2023-05-07T05:15:11;12.50;99.90
7694;DHT22;3889;48.162;11.510;2023-05-07T05:17:39;12.50;99.90
7694;DHT22;3889;48.162;11.510;2023-05-07T05:20:07;12.60;99.90
7694;DHT22;3889;48.162;11.510;2023-05-07T05:22:38;12.60;99.90
7694;DHT22;3889;48.162;11.510;2023-05-07T05:25:06;12.60;99.90
7694;DHT22;3889;48.162;11.510;2023-05-07T05:27:34;12.90;99.90
7694;DHT22;3889;48.162;11.510;2023-05-07T05:30:03;13.00;99.90
7694;DHT22;3889;48.162;11.510;2023-05-07T05:32:32;13.20;99.90
7694;DHT22;3889;48.162;11.510;2023-05-07T05:35:00;13.10;99.90
7694;DHT22;3889;48.162;11.510;2023-05-07T05:37:28;13.20;99.90
7694;DHT22;3889;48.162;11.510;2023-05-07T05:39:59;13.40;99.90
7694;DHT22;3889;48.162;11.510;2023-05-07T05:42:27;13.50;99.90
7694;DHT22;3889;48.162;11.510;2023-05-07T05:44:54;13.70;99.90
7694;DHT22;3889;48.162;11.510;2023-05-07T05:47:22;13.80;99.90
7694;DHT22;3889;48.162;11.510;2023-05-07T05:49:50;13.90;99.90
7694;DHT22;3889;48.162;11.510;2023-05-07T05:52:18;14.00;99.90
7694;DHT22;3889;48.162;11.510;2023-05-07T05:54:46;14.10;99.90
7694;DHT22;3889;48.162;11.510;2023-05-07T05:57:15;14.30;99.90
7694;DHT22;3889;48.162;11.510;2023-05-07T05:59:43;14.40;99.90
7694;DHT22;3889;48.162;11.510;2023-05-07T06:02:11;14.50;99.90
7694;DHT22;3889;48.162;11.510;2023-05-07T06:04:39;14.60;99.90
7694;DHT22;3889;48.162;11.510;2023-05-07T06:07:09;14.80;99.90
7694;DHT22;3889;48.162;11.510;2023-05-07T06:09:37;14.90;99.90
7694;DHT22;3889;48.162;11.510;2023-05-07T06:12:05;15.00;99.90
7694;DHT22;3889;48.162;11.510;2023-05-07T06:14:35;15.00;99.90
7694;DHT22;3889;48.162;11.510;2023-05-07T06:17:03;15.10;99.90
7694;DHT22;3889;48.162;11.510;2023-05-07T06:19:32;15.20;99.90
7694;DHT22;3889;48.162;11.510;2023-05-07T06:21:59;15.30;99.90
7694;DHT22;3889;48.162;11.510;2023-05-07T06:24:29;15.40;99.90
7694;DHT22;3889;48.162;11.510;2023-05-07T06:26:56;15.60;99.90
7694;DHT22;3889;48.162;11.510;2023-05-07T06:29:25;15.70;99.90
7694;DHT22;3889;48.162;11.510;2023-05-07T06:31:55;15.70;99.90
7694;DHT22;3889;48.162;11.510;2023-05-07T06:34:22;15.90;99.90
7694;DHT22;3889;48.162;11.510;2023-05-07T06:36:50;16.00;99.90
7694;DHT22;3889;48.162;11.510;2023-05-07T06:39:18;16.20;99.90
7694;DHT22;3889;48.162;11.510;2023-05-07T06:41:46;16.40;99.90
7694;DHT22;3889;48.162;11.510;2023-05-07T06:44:14;16.60;99.90
7694;DHT22;3889;48.162;11.510;2023-05-07T06:46:42;16.80;99.90
7694;DHT22;3889;48.162;11.510;2023-05-07T06:49:12;16.90;99.90
7694;DHT22;3889;48.162;11.510;2023-05-07T06:51:40;17.00;99.90
7694;DHT22;3889;48.162;11.510;2023-05-07T06:54:08;17.10;99.90
7694;DHT22;3889;48.162;11.510;2023-05-07T06:56:36;17.20;99.90
7694;DHT22;3889;48.162;11.510;2023-05-07T06:59:04;17.30;99.90
7694;DHT22;3889;48.162;11.510;2023-05-07T07:01:32;17.40;99.90
7694;DHT22;3889;48.162;11.510;2023-05-07T07:04:00;17.40;99.90
7694;DHT22;3889;48.162;11.510;2023-05-07T07:06:29;17.40;99.90
7694;DHT22;3889;48.162;11.510;2023-05-07T07:08:58;17.60;99.90
7694;DHT22;3889;48.162;11.510;2023-05-07T07:11:26;17.70;99.90
7694;DHT22;3889;48.162;11.510;2023-05-07T07:13:54;17.90;99.90
7694;DHT22;3889;48.162;11.510;2023-05-07T07:16:22;17.90;99.90
7694;DHT22;3889;48.162;11.510;2023-05-07T07:18:50;17.80;99.90
7694;DHT22;3889;48.162;11.510;2023-05-07T07:21:18;18.00;99.90
7694;DHT22;3889;48.162;11.510;2023-05-07T07:23:47;18.10;99.90
7694;DHT22;3889;48.162;11.510;2023-05-07T07:26:15;18.20;99.90
7694;DHT22;3889;48.162;11.510;2023-05-07T07:28:43;18.20;99.90
7694;DHT22;3889;48.162;11.510;2023-05-07T07:31:11;18.30;99.90
7694;DHT22;3889;48.162;11.510;2023-05-07T07:33:40;18.40;99.90
7694;DHT22;3889;48.162;11.510;2023-05-07T07:36:09;18.40;99.90
7694;DHT22;3889;48.162;11.510;2023-05-07T07:38:37;18.60;99.90
7694;DHT22;3889;48.162;11.510;2023-05-07T07:41:08;18.60;99.90
7694;DHT22;3889;48.162;11.510;2023-05-07T07:43:36;18.70;99.90
7694;DHT22;3889;48.162;11.510;2023-05-07T07:46:04;18.80;99.90
7694;DHT22;3889;48.162;11.510;2023-05-07T07:48:31;18.80;99.90
7694;DHT22;3889;48.162;11.510;2023-05-07T07:50:59;18.90;99.90
7694;DHT22;3889;48.162;11.510;2023-05-07T07:53:27;18.90;99.90
7694;DHT22;3889;48.162;11.510;2023-05-07T07:55:55;19.00;99.90
7694;DHT22;3889;48.162;11.510;2023-05-07T07:58:26;19.10;99.90
7694;DHT22;3889;48.162;11.510;2023-05-07T08:00:54;19.10;99.90
7694;DHT22;3889;48.162;11.510;2023-05-07T08:03:22;19.20;99.90
7694;DHT22;3889;48.162;11.510;2023-05-07T08:05:51;19.40;99.90
7694;DHT22;3889;48.162;11.510;2023-05-07T08:08:18;19.30;99.90
7694;DHT22;3889;48.162;11.510;2023-05-07T08:10:46;19.50;99.90
7694;DHT22;3889;48.162;11.510;2023-05-07T08:13:17;19.40;99.90
7694;DHT22;3889;48.162;11.510;2023-05-07T08:15:46;19.60;99.90
7694;DHT22;3889;48.162;11.510;2023-05-07T08:18:14;19.50;99.90
7694;DHT22;3889;48.162;11.510;2023-05-07T08:20:42;19.40;99.90
7694;DHT22;3889;48.162;11.510;2023-05-07T08:23:10;19.60;99.90
7694;DHT22;3889;48.162;11.510;2023-05-07T08:25:38;19.60;99.90
7694;DHT22;3889;48.162;11.510;2023-05-07T08:28:06;19.70;99.90
7694;DHT22;3889;48.162;11.510;2023-05-07T08:30:35;19.80;99.90
7694;DHT22;3889;48.162;11.510;2023-05-07T08:33:05;19.80;99.90
7694;DHT22;3889;48.162;11.510;2023-05-07T08:35:33;19.90;99.90
7694;DHT22;3889;48.162;11.510;2023-05-07T08:38:00;20.00;99.90
7694;DHT22;3889;48.162;11.510;2023-05-07T08:40:28;20.00;99.90
7694;DHT22;3889;48.162;11.510;2023-05-07T08:42:57;20.00;99.90
7694;DHT22;3889;48.162;11.510;2023-05-07T08:45:26;20.10;99.90
7694;DHT22;3889;48.162;11.510;2023-05-07T08:47:58;20.20;99.90
7694;DHT22;3889;48.162;11.510;2023-05-07T08:50:28;20.20;99.90
7694;DHT22;3889;48.162;11.510;2023-05-07T08:52:57;20.30;99.90
7694;DHT22;3889;48.162;11.510;2023-05-07T08:55:28;20.20;99.90
7694;DHT22;3889;48.162;11.510;2023-05-07T08:57:56;20.40;99.90
7694;DHT22;3889;48.162;11.510;2023-05-07T09:00:24;20.40;99.90
7694;DHT22;3889;48.162;11.510;2023-05-07T09:02:52;20.40;99.90
7694;DHT22;3889;48.162;11.510;2023-05-07T09:05:20;20.50;99.90
7694;DHT22;3889;48.162;11.510;2023-05-07T09:07:50;20.40;99.90
7694;DHT22;3889;48.162;11.510;2023-05-07T09:10:20;20.50;99.90
7694;DHT22;3889;48.162;11.510;2023-05-07T09:12:48;20.70;99.90
7694;DHT22;3889;48.162;11.510;2023-05-07T09:15:17;20.80;99.90
7694;DHT22;3889;48.162;11.510;2023-05-07T09:17:47;20.90;99.90
7694;DHT22;3889;48.162;11.510;2023-05-07T09:20:16;20.90;99.90
7694;DHT22;3889;48.162;11.510;2023-05-07T09:22:44;21.00;99.90
7694;DHT22;3889;48.162;11.510;2023-05-07T09:25:13;21.00;99.90
7694;DHT22;3889;48.162;11.510;2023-05-07T09:27:42;20.90;99.90
7694;DHT22;3889;48.162;11.510;2023-05-07T09:30:10;20.80;99.90
7694;DHT22;3889;48.162;11.510;2023-05-07T09:32:38;20.80;99.90
7694;DHT22;3889;48.162;11.510;2023-05-07T09:35:14;20.80;99.90
7694;DHT22;3889;48.162;11.510;2023-05-07T09:37:43;20.90;99.90
7694;DHT22;3889;48.162;11.510;2023-05-07T09:40:21;21.00;99.90
7694;DHT22;3889;48.162;11.510;2023-05-07T09:42:50;21.10;99.90
7694;DHT22;3889;48.162;11.510;2023-05-07T09:45:21;21.10;99.90
7694;DHT22;3889;48.162;11.510;2023-05-07T09:47:49;21.10;99.90
7694;DHT22;3889;48.162;11.510;2023-05-07T09:50:22;21.10;99.90
7694;DHT22;3889;48.162;11.510;2023-05-07T09:52:54;21.10;99.90
7694;DHT22;3889;48.162;11.510;2023-05-07T09:55:23;21.20;99.90
7694;DHT22;3889;48.162;11.510;2023-05-07T09:57:52;21.40;99.90
7694;DHT22;3889;48.162;11.510;2023-05-07T10:00:22;21.30;99.90
7694;DHT22;3889;48.162;11.510;2023-05-07T10:02:51;21.30;99.90
7694;DHT22;3889;48.162;11.510;2023-05-07T10:05:20;21.40;99.90
7694;DHT22;3889;48.162;11.510;2023-05-07T10:07:49;21.30;99.90
7694;DHT22;3889;48.162;11.510;2023-05-07T10:10:18;21.20;99.90
7694;DHT22;3889;48.162;11.510;2023-05-07T10:12:48;21.20;99.90
7694;DHT22;3889;48.162;11.510;2023-05-07T10:15:17;21.20;99.90
7694;DHT22;3889;48.162;11.510;2023-05-07T10:17:45;21.30;99.90
7694;DHT22;3889;48.162;11.510;2023-05-07T10:20:14;21.30;99.90
7694;DHT22;3889;48.162;11.510;2023-05-07T10:22:44;21.40;99.90
7694;DHT22;3889;48.162;11.510;2023-05-07T10:25:14;21.30;99.90
7694;DHT22;3889;48.162;11.510;2023-05-07T10:27:45;21.30;99.90
7694;DHT22;3889;48.162;11.510;2023-05-07T10:30:29;21.30;99.90
7694;DHT22;3889;48.162;11.510;2023-05-07T10:33:03;21.60;99.90
7694;DHT22;3889;48.162;11.510;2023-05-07T10:35:44;21.60;99.90
7694;DHT22;3889;48.162;11.510;2023-05-07T10:38:13;21.60;99.90
7694;DHT22;3889;48.162;11.510;2023-05-07T10:40:41;21.70;99.90
7694;DHT22;3889;48.162;11.510;2023-05-07T10:43:09;21.90;99.90
7694;DHT22;3889;48.162;11.510;2023-05-07T10:45:38;21.80;99.90
7694;DHT22;3889;48.162;11.510;2023-05-07T10:48:10;21.70;99.90
7694;DHT22;3889;48.162;11.510;2023-05-07T10:50:42;21.50;99.90
7694;DHT22;3889;48.162;11.510;2023-05-07T10:53:23;21.60;99.90
7694;DHT22;3889;48.162;11.510;2023-05-07T10:56:26;21.70;99.90
7694;DHT22;3889;48.162;11.510;2023-05-07T10:59:30;22.00;99.90
7694;DHT22;3889;48.162;11.510;2023-05-07T11:02:00;22.00;99.90
7694;DHT22;3889;48.162;11.510;2023-05-07T11:04:31;21.90;99.90
7694;DHT22;3889;48.162;11.510;2023-05-07T11:07:29;22.00;99.90
7694;DHT22;3889;48.162;11.510;2023-05-07T11:10:02;21.80;99.90
7694;DHT22;3889;48.162;11.510;2023-05-07T11:12:56;21.90;99.90
7694;DHT22;3889;48.162;11.510;2023-05-07T11:15:41;22.00;99.90
7694;DHT22;3889;48.162;11.510;2023-05-07T11:18:12;22.20;99.90
7694;DHT22;3889;48.162;11.510;2023-05-07T11:20:54;22.30;99.90
7694;DHT22;3889;48.162;11.510;2023-05-07T11:26:29;22.50;99.90
7694;DHT22;3889;48.162;11.510;2023-05-07T11:28:57;22.40;99.90
7694;DHT22;3889;48.162;11.510;2023-05-07T11:31:27;22.50;99.90
7694;DHT22;3889;48.162;11.510;2023-05-07T11:33:58;22.50;99.90
7694;DHT22;3889;48.162;11.510;2023-05-07T11:36:31;22.60;99.90
7694;DHT22;3889;48.162;11.510;2023-05-07T11:38:59;22.40;99.90
7694;DHT22;3889;48.162;11.510;2023-05-07T11:41:34;22.30;99.90
7694;DHT22;3889;48.162;11.510;2023-05-07T11:44:02;22.40;99.90
7694;DHT22;3889;48.162;11.510;2023-05-07T11:46:30;22.30;99.90
7694;DHT22;3889;48.162;11.510;2023-05-07T11:49:00;22.50;99.90
7694;DHT22;3889;48.162;11.510;2023-05-07T11:51:28;22.60;99.90
7694;DHT22;3889;48.162;11.510;2023-05-07T11:53:57;22.70;99.90
7694;DHT22;3889;48.162;11.510;2023-05-07T11:56:25;22.80;99.90
7694;DHT22;3889;48.162;11.510;2023-05-07T11:58:53;23.00;99.90
7694;DHT22;3889;48.162;11.510;2023-05-07T12:01:21;22.80;99.90
7694;DHT22;3889;48.162;11.510;2023-05-07T12:03:49;22.80;99.90
7694;DHT22;3889;48.162;11.510;2023-05-07T12:06:18;22.80;99.90
7694;DHT22;3889;48.162;11.510;2023-05-07T12:08:46;22.40;99.90
7694;DHT22;3889;48.162;11.510;2023-05-07T12:11:18;22.50;99.90
7694;DHT22;3889;48.162;11.510;2023-05-07T12:13:49;22.40;99.90
7694;DHT22;3889;48.162;11.510;2023-05-07T12:16:17;22.40;99.90
7694;DHT22;3889;48.162;11.510;2023-05-07T12:18:46;22.40;99.90
7694;DHT22;3889;48.162;11.510;2023-05-07T12:21:15;22.50;99.90
7694;DHT22;3889;48.162;11.510;2023-05-07T12:23:45;22.70;99.90
7694;DHT22;3889;48.162;11.510;2023-05-07T12:26:13;22.90;99.90
7694;DHT22;3889;48.162;11.510;2023-05-07T12:28:41;22.90;99.90
7694;DHT22;3889;48.162;11.510;2023-05-07T12:31:09;23.00;99.90
7694;DHT22;3889;48.162;11.510;2023-05-07T12:33:37;22.90;99.90
7694;DHT22;3889;48.162;11.510;2023-05-07T12:36:06;23.00;99.90
7694;DHT22;3889;48.162;11.510;2023-05-07T12:38:36;23.10;99.90
7694;DHT22;3889;48.162;11.510;2023-05-07T12:41:06;23.20;99.90
7694;DHT22;3889;48.162;11.510;2023-05-07T12:43:35;23.30;99.90
7694;DHT22;3889;48.162;11.510;2023-05-07T12:46:04;23.30;99.90
7694;DHT22;3889;48.162;11.510;2023-05-07T12:48:33;23.30;99.90
7694;DHT22;3889;48.162;11.510;2023-05-07T12:51:01;23.00;99.90
7694;DHT22;3889;48.162;11.510;2023-05-07T12:53:30;23.00;99.90
7694;DHT22;3889;48.162;11.510;2023-05-07T12:55:58;23.10;99.90
7694;DHT22;3889;48.162;11.510;2023-05-07T12:58:30;23.30;99.90
7694;DHT22;3889;48.162;11.510;2023-05-07T13:01:00;23.20;99.90
7694;DHT22;3889;48.162;11.510;2023-05-07T13:03:30;23.00;99.90
7694;DHT22;3889;48.162;11.510;2023-05-07T13:05:59;22.80;99.90
7694;DHT22;3889;48.162;11.510;2023-05-07T13:08:30;22.80;99.90
7694;DHT22;3889;48.162;11.510;2023-05-07T13:10:59;22.80;99.90
7694;DHT22;3889;48.162;11.510;2023-05-07T13:13:31;22.80;99.90
7694;DHT22;3889;48.162;11.510;2023-05-07T13:16:00;22.80;99.90
7694;DHT22;3889;48.162;11.510;2023-05-07T13:18:30;22.80;99.90
7694;DHT22;3889;48.162;11.510;2023-05-07T13:20:59;22.90;99.90
7694;DHT22;3889;48.162;11.510;2023-05-07T13:23:28;22.80;99.90
7694;DHT22;3889;48.162;11.510;2023-05-07T13:25:56;22.80;99.90
7694;DHT22;3889;48.162;11.510;2023-05-07T13:28:24;22.70;99.90
7694;DHT22;3889;48.162;11.510;2023-05-07T13:30:53;22.60;99.90
7694;DHT22;3889;48.162;11.510;2023-05-07T13:33:21;22.70;99.90
7694;DHT22;3889;48.162;11.510;2023-05-07T13:35:50;22.80;99.90
7694;DHT22;3889;48.162;11.510;2023-05-07T13:38:18;22.80;99.90
7694;DHT22;3889;48.162;11.510;2023-05-07T13:40:47;23.00;99.90
7694;DHT22;3889;48.162;11.510;2023-05-07T13:43:15;22.70;99.90
7694;DHT22;3889;48.162;11.510;2023-05-07T13:45:44;22.70;99.90
7694;DHT22;3889;48.162;11.510;2023-05-07T13:48:13;22.80;99.90
7694;DHT22;3889;48.162;11.510;2023-05-07T13:50:41;22.80;99.90
7694;DHT22;3889;48.162;11.510;2023-05-07T13:53:09;22.80;99.90
7694;DHT22;3889;48.162;11.510;2023-05-07T13:55:37;22.70;99.90
7694;DHT22;3889;48.162;11.510;2023-05-07T13:58:05;22.70;99.90
7694;DHT22;3889;48.162;11.510;2023-05-07T14:00:33;22.60;99.90
7694;DHT22;3889;48.162;11.510;2023-05-07T14:03:01;22.70;99.90
7694;DHT22;3889;48.162;11.510;2023-05-07T14:05:31;22.70;99.90
7694;DHT22;3889;48.162;11.510;2023-05-07T14:07:59;22.70;99.90
7694;DHT22;3889;48.162;11.510;2023-05-07T14:10:27;22.70;99.90
7694;DHT22;3889;48.162;11.510;2023-05-07T14:12:55;22.80;99.90
7694;DHT22;3889;48.162;11.510;2023-05-07T14:15:23;22.70;99.90
7694;DHT22;3889;48.162;11.510;2023-05-07T14:17:51;22.60;99.90
7694;DHT22;3889;48.162;11.510;2023-05-07T14:20:19;22.50;99.90
7694;DHT22;3889;48.162;11.510;2023-05-07T14:22:49;22.30;99.90
7694;DHT22;3889;48.162;11.510;2023-05-07T14:25:17;22.20;99.90
7694;DHT22;3889;48.162;11.510;2023-05-07T14:27:45;22.20;99.90
7694;DHT22;3889;48.162;11.510;2023-05-07T14:30:13;22.00;99.90
7694;DHT22;3889;48.162;11.510;2023-05-07T14:32:41;22.00;99.90
7694;DHT22;3889;48.162;11.510;2023-05-07T14:35:09;21.90;99.90
7694;DHT22;3889;48.162;11.510;2023-05-07T14:37:37;22.00;99.90
7694;DHT22;3889;48.162;11.510;2023-05-07T14:40:08;22.10;99.90
7694;DHT22;3889;48.162;11.510;2023-05-07T14:42:36;22.00;99.90
7694;DHT22;3889;48.162;11.510;2023-05-07T14:45:05;22.00;99.90
7694;DHT22;3889;48.162;11.510;2023-05-07T14:47:33;22.00;99.90
7694;DHT22;3889;48.162;11.510;2023-05-07T14:50:01;22.10;99.90
7694;DHT22;3889;48.162;11.510;2023-05-07T14:52:29;22.00;99.90
7694;DHT22;3889;48.162;11.510;2023-05-07T14:54:57;21.80;99.90
7694;DHT22;3889;48.162;11.510;2023-05-07T14:57:26;21.90;99.90
7694;DHT22;3889;48.162;11.510;2023-05-07T14:59:58;21.70;99.90
7694;DHT22;3889;48.162;11.510;2023-05-07T15:02:26;21.60;99.90
7694;DHT22;3889;48.162;11.510;2023-05-07T15:04:54;21.60;99.90
7694;DHT22;3889;48.162;11.510;2023-05-07T15:07:22;21.50;99.90
7694;DHT22;3889;48.162;11.510;2023-05-07T15:09:50;21.50;99.90
7694;DHT22;3889;48.162;11.510;2023-05-07T15:12:18;21.40;99.90
7694;DHT22;3889;48.162;11.510;2023-05-07T15:14:47;21.40;99.90
7694;DHT22;3889;48.162;11.510;2023-05-07T15:17:15;21.30;99.90
7694;DHT22;3889;48.162;11.510;2023-05-07T15:19:43;21.20;99.90
7694;DHT22;3889;48.162;11.510;2023-05-07T15:22:10;21.20;99.90
7694;DHT22;3889;48.162;11.510;2023-05-07T15:24:39;21.30;99.90
7694;DHT22;3889;48.162;11.510;2023-05-07T15:27:07;21.20;99.90
7694;DHT22;3889;48.162;11.510;2023-05-07T15:29:35;21.10;99.90
7694;DHT22;3889;48.162;11.510;2023-05-07T15:32:05;20.90;99.90
7694;DHT22;3889;48.162;11.510;2023-05-07T15:34:33;20.90;99.90
7694;DHT22;3889;48.162;11.510;2023-05-07T15:37:01;20.80;99.90
7694;DHT22;3889;48.162;11.510;2023-05-07T15:39:30;20.80;99.90
7694;DHT22;3889;48.162;11.510;2023-05-07T15:41:57;20.80;99.90
7694;DHT22;3889;48.162;11.510;2023-05-07T15:44:25;20.50;99.90
7694;DHT22;3889;48.162;11.510;2023-05-07T15:46:54;20.40;99.90
7694;DHT22;3889;48.162;11.510;2023-05-07T15:49:23;20.40;99.90
7694;DHT22;3889;48.162;11.510;2023-05-07T15:51:51;20.40;99.90
7694;DHT22;3889;48.162;11.510;2023-05-07T15:54:21;20.40;99.90
7694;DHT22;3889;48.162;11.510;2023-05-07T15:56:49;20.40;99.90
7694;DHT22;3889;48.162;11.510;2023-05-07T15:59:17;20.40;99.90